sensor_id;sensor_type;location;lat;lon;timestamp;P1;durP1;ratioP1;P2;durP2;ratioP2
76202;SDS011;64985;46.364;17.008;2022-12-18T00:00:21;85.10;;;31.92;;
76202;SDS011;64985;46.364;17.008;2022-12-18T00:03:24;111.60;;;37.10;;
76202;SDS011;64985;46.364;17.008;2022-12-18T00:06:27;91.57;;;33.40;;
76202;SDS011;64985;46.364;17.008;2022-12-18T00:09:30;84.72;;;31.95;;
76202;SDS011;64985;46.364;17.008;2022-12-18T00:12:40;79.68;;;30.02;;
76202;SDS011;64985;46.364;17.008;2022-12-18T00:15:42;94.75;;;33.35;;
76202;SDS011;64985;46.364;17.008;2022-12-18T00:18:45;130.88;;;38.55;;
76202;SDS011;64985;46.364;17.008;2022-12-18T00:21:47;119.47;;;36.75;;
76202;SDS011;64985;46.364;17.008;2022-12-18T00:24:49;126.57;;;38.85;;
76202;SDS011;64985;46.364;17.008;2022-12-18T00:27:51;121.68;;;36.55;;
76202;SDS011;64985;46.364;17.008;2022-12-18T00:31:06;101.43;;;33.85;;
76202;SDS011;64985;46.364;17.008;2022-12-18T00:34:11;138.38;;;41.00;;
76202;SDS011;64985;46.364;17.008;2022-12-18T00:37:15;135.35;;;40.40;;
76202;SDS011;64985;46.364;17.008;2022-12-18T00:40:20;133.73;;;39.55;;
76202;SDS011;64985;46.364;17.008;2022-12-18T00:43:22;114.88;;;36.60;;
76202;SDS011;64985;46.364;17.008;2022-12-18T00:46:25;90.25;;;29.45;;
76202;SDS011;64985;46.364;17.008;2022-12-18T00:49:27;102.90;;;31.92;;
76202;SDS011;64985;46.364;17.008;2022-12-18T00:52:29;111.20;;;34.92;;
76202;SDS011;64985;46.364;17.008;2022-12-18T00:55:31;90.05;;;30.85;;
76202;SDS011;64985;46.364;17.008;2022-12-18T00:58:33;80.15;;;28.80;;
76202;SDS011;64985;46.364;17.008;2022-12-18T01:01:35;73.75;;;26.65;;
76202;SDS011;64985;46.364;17.008;2022-12-18T01:04:38;83.28;;;26.83;;
76202;SDS011;64985;46.364;17.008;2022-12-18T01:07:40;76.22;;;26.90;;
76202;SDS011;64985;46.364;17.008;2022-12-18T01:10:42;75.30;;;27.88;;
76202;SDS011;64985;46.364;17.008;2022-12-18T01:13:45;80.10;;;28.92;;
76202;SDS011;64985;46.364;17.008;2022-12-18T01:16:48;73.78;;;28.02;;
76202;SDS011;64985;46.364;17.008;2022-12-18T01:19:50;80.40;;;27.80;;
76202;SDS011;64985;46.364;17.008;2022-12-18T01:22:52;75.40;;;26.48;;
76202;SDS011;64985;46.364;17.008;2022-12-18T01:25:54;75.35;;;25.88;;
76202;SDS011;64985;46.364;17.008;2022-12-18T01:28:57;74.57;;;25.83;;
76202;SDS011;64985;46.364;17.008;2022-12-18T01:31:59;77.97;;;28.02;;
76202;SDS011;64985;46.364;17.008;2022-12-18T01:35:01;82.28;;;26.13;;
76202;SDS011;64985;46.364;17.008;2022-12-18T01:38:04;72.10;;;26.15;;
76202;SDS011;64985;46.364;17.008;2022-12-18T01:41:06;79.75;;;25.55;;
76202;SDS011;64985;46.364;17.008;2022-12-18T01:47:49;75.97;;;26.23;;
76202;SDS011;64985;46.364;17.008;2022-12-18T01:50:54;76.47;;;26.15;;
76202;SDS011;64985;46.364;17.008;2022-12-18T01:53:57;81.93;;;26.88;;
76202;SDS011;64985;46.364;17.008;2022-12-18T01:57:01;78.97;;;26.98;;
76202;SDS011;64985;46.364;17.008;2022-12-18T02:00:05;73.70;;;26.23;;
76202;SDS011;64985;46.364;17.008;2022-12-18T02:03:10;80.88;;;26.55;;
76202;SDS011;64985;46.364;17.008;2022-12-18T02:09:18;72.40;;;25.73;;
76202;SDS011;64985;46.364;17.008;2022-12-18T02:12:42;77.30;;;25.63;;
76202;SDS011;64985;46.364;17.008;2022-12-18T02:29:21;73.88;;;26.35;;
76202;SDS011;64985;46.364;17.008;2022-12-18T02:32:30;71.80;;;24.65;;
76202;SDS011;64985;46.364;17.008;2022-12-18T02:35:39;67.45;;;25.63;;
76202;SDS011;64985;46.364;17.008;2022-12-18T02:38:43;70.30;;;24.02;;
76202;SDS011;64985;46.364;17.008;2022-12-18T02:41:46;63.25;;;23.80;;
76202;SDS011;64985;46.364;17.008;2022-12-18T02:44:50;65.80;;;23.38;;
76202;SDS011;64985;46.364;17.008;2022-12-18T02:47:53;67.57;;;25.73;;
76202;SDS011;64985;46.364;17.008;2022-12-18T02:51:15;59.88;;;23.63;;
76202;SDS011;64985;46.364;17.008;2022-12-18T02:54:35;57.78;;;22.80;;
76202;SDS011;64985;46.364;17.008;2022-12-18T02:57:50;53.03;;;18.70;;
76202;SDS011;64985;46.364;17.008;2022-12-18T03:04:18;56.08;;;19.75;;
76202;SDS011;64985;46.364;17.008;2022-12-18T03:07:33;57.15;;;21.20;;
76202;SDS011;64985;46.364;17.008;2022-12-18T03:10:44;56.35;;;21.48;;
76202;SDS011;64985;46.364;17.008;2022-12-18T03:13:54;53.55;;;21.92;;
76202;SDS011;64985;46.364;17.008;2022-12-18T03:16:59;62.08;;;23.65;;
76202;SDS011;64985;46.364;17.008;2022-12-18T03:20:06;59.90;;;23.42;;
76202;SDS011;64985;46.364;17.008;2022-12-18T03:23:15;53.60;;;22.33;;
76202;SDS011;64985;46.364;17.008;2022-12-18T03:26:21;58.03;;;21.55;;
76202;SDS011;64985;46.364;17.008;2022-12-18T03:33:10;52.70;;;20.92;;
76202;SDS011;64985;46.364;17.008;2022-12-18T03:36:19;53.75;;;21.15;;
76202;SDS011;64985;46.364;17.008;2022-12-18T03:39:21;52.47;;;19.52;;
76202;SDS011;64985;46.364;17.008;2022-12-18T03:42:36;48.55;;;20.08;;
76202;SDS011;64985;46.364;17.008;2022-12-18T03:46:23;47.03;;;17.70;;
76202;SDS011;64985;46.364;17.008;2022-12-18T03:52:53;47.33;;;19.27;;
76202;SDS011;64985;46.364;17.008;2022-12-18T03:56:07;50.30;;;19.40;;
76202;SDS011;64985;46.364;17.008;2022-12-18T03:59:16;46.50;;;19.08;;
76202;SDS011;64985;46.364;17.008;2022-12-18T04:02:20;45.65;;;17.52;;
76202;SDS011;64985;46.364;17.008;2022-12-18T04:05:25;45.00;;;17.75;;
76202;SDS011;64985;46.364;17.008;2022-12-18T04:08:29;45.85;;;18.40;;
76202;SDS011;64985;46.364;17.008;2022-12-18T04:11:32;48.78;;;20.02;;
76202;SDS011;64985;46.364;17.008;2022-12-18T04:14:34;44.00;;;17.95;;
76202;SDS011;64985;46.364;17.008;2022-12-18T04:17:37;55.33;;;20.75;;
76202;SDS011;64985;46.364;17.008;2022-12-18T04:20:40;54.05;;;20.58;;
76202;SDS011;64985;46.364;17.008;2022-12-18T04:23:42;52.67;;;22.45;;
76202;SDS011;64985;46.364;17.008;2022-12-18T04:26:44;54.30;;;22.63;;
76202;SDS011;64985;46.364;17.008;2022-12-18T04:29:46;64.60;;;26.85;;
76202;SDS011;64985;46.364;17.008;2022-12-18T04:32:48;58.63;;;23.20;;
76202;SDS011;64985;46.364;17.008;2022-12-18T04:35:52;46.33;;;18.83;;
76202;SDS011;64985;46.364;17.008;2022-12-18T04:38:55;45.90;;;18.80;;
76202;SDS011;64985;46.364;17.008;2022-12-18T04:41:57;46.55;;;18.55;;
76202;SDS011;64985;46.364;17.008;2022-12-18T04:44:59;50.85;;;18.95;;
76202;SDS011;64985;46.364;17.008;2022-12-18T04:48:01;50.78;;;20.00;;
76202;SDS011;64985;46.364;17.008;2022-12-18T04:51:04;49.38;;;18.83;;
76202;SDS011;64985;46.364;17.008;2022-12-18T04:54:07;59.15;;;22.63;;
76202;SDS011;64985;46.364;17.008;2022-12-18T04:57:09;52.80;;;20.08;;
76202;SDS011;64985;46.364;17.008;2022-12-18T05:00:11;43.72;;;17.48;;
76202;SDS011;64985;46.364;17.008;2022-12-18T05:03:14;44.53;;;17.40;;
76202;SDS011;64985;46.364;17.008;2022-12-18T05:06:16;46.67;;;18.13;;
76202;SDS011;64985;46.364;17.008;2022-12-18T05:09:18;51.75;;;19.50;;
76202;SDS011;64985;46.364;17.008;2022-12-18T05:12:20;47.53;;;18.48;;
76202;SDS011;64985;46.364;17.008;2022-12-18T05:15:31;46.28;;;17.45;;
76202;SDS011;64985;46.364;17.008;2022-12-18T05:18:34;47.63;;;17.53;;
76202;SDS011;64985;46.364;17.008;2022-12-18T05:21:37;43.05;;;17.10;;
76202;SDS011;64985;46.364;17.008;2022-12-18T05:24:39;44.05;;;17.25;;
76202;SDS011;64985;46.364;17.008;2022-12-18T05:27:41;43.70;;;16.67;;
76202;SDS011;64985;46.364;17.008;2022-12-18T05:30:47;38.00;;;15.68;;
76202;SDS011;64985;46.364;17.008;2022-12-18T05:33:53;56.65;;;19.02;;
76202;SDS011;64985;46.364;17.008;2022-12-18T05:37:14;48.47;;;18.17;;
76202;SDS011;64985;46.364;17.008;2022-12-18T05:40:16;50.03;;;18.25;;
76202;SDS011;64985;46.364;17.008;2022-12-18T05:43:19;50.10;;;17.75;;
76202;SDS011;64985;46.364;17.008;2022-12-18T05:46:23;42.08;;;16.83;;
76202;SDS011;64985;46.364;17.008;2022-12-18T05:49:25;40.15;;;15.30;;
76202;SDS011;64985;46.364;17.008;2022-12-18T05:52:28;38.22;;;14.88;;
76202;SDS011;64985;46.364;17.008;2022-12-18T05:55:36;41.85;;;15.82;;
76202;SDS011;64985;46.364;17.008;2022-12-18T05:58:40;36.50;;;15.15;;
76202;SDS011;64985;46.364;17.008;2022-12-18T06:01:43;36.28;;;14.68;;
76202;SDS011;64985;46.364;17.008;2022-12-18T06:04:45;52.30;;;18.88;;
76202;SDS011;64985;46.364;17.008;2022-12-18T06:07:47;61.97;;;21.27;;
76202;SDS011;64985;46.364;17.008;2022-12-18T06:10:50;62.28;;;22.45;;
76202;SDS011;64985;46.364;17.008;2022-12-18T06:13:54;54.75;;;21.77;;
76202;SDS011;64985;46.364;17.008;2022-12-18T06:17:01;50.47;;;18.58;;
76202;SDS011;64985;46.364;17.008;2022-12-18T06:20:03;53.83;;;19.33;;
76202;SDS011;64985;46.364;17.008;2022-12-18T06:23:07;50.97;;;18.52;;
76202;SDS011;64985;46.364;17.008;2022-12-18T06:26:11;74.70;;;27.77;;
76202;SDS011;64985;46.364;17.008;2022-12-18T06:29:14;78.93;;;28.13;;
76202;SDS011;64985;46.364;17.008;2022-12-18T06:32:16;76.47;;;28.73;;
76202;SDS011;64985;46.364;17.008;2022-12-18T06:35:18;81.18;;;29.50;;
76202;SDS011;64985;46.364;17.008;2022-12-18T06:38:21;78.30;;;28.10;;
76202;SDS011;64985;46.364;17.008;2022-12-18T06:41:23;67.40;;;26.85;;
76202;SDS011;64985;46.364;17.008;2022-12-18T06:44:25;63.97;;;26.13;;
76202;SDS011;64985;46.364;17.008;2022-12-18T06:47:27;78.65;;;28.17;;
76202;SDS011;64985;46.364;17.008;2022-12-18T06:50:30;67.10;;;26.60;;
76202;SDS011;64985;46.364;17.008;2022-12-18T06:53:32;71.65;;;27.52;;
76202;SDS011;64985;46.364;17.008;2022-12-18T06:56:35;80.43;;;30.95;;
76202;SDS011;64985;46.364;17.008;2022-12-18T06:59:37;94.18;;;32.97;;
76202;SDS011;64985;46.364;17.008;2022-12-18T07:02:39;126.68;;;43.72;;
76202;SDS011;64985;46.364;17.008;2022-12-18T07:05:42;134.68;;;44.85;;
76202;SDS011;64985;46.364;17.008;2022-12-18T07:08:44;119.18;;;41.10;;
76202;SDS011;64985;46.364;17.008;2022-12-18T07:11:47;112.15;;;38.30;;
76202;SDS011;64985;46.364;17.008;2022-12-18T07:14:49;93.40;;;33.08;;
76202;SDS011;64985;46.364;17.008;2022-12-18T07:17:51;94.55;;;33.38;;
76202;SDS011;64985;46.364;17.008;2022-12-18T07:20:53;107.57;;;37.67;;
76202;SDS011;64985;46.364;17.008;2022-12-18T07:23:56;115.70;;;37.55;;
76202;SDS011;64985;46.364;17.008;2022-12-18T07:26:58;106.93;;;37.60;;
76202;SDS011;64985;46.364;17.008;2022-12-18T07:30:00;104.50;;;36.08;;
76202;SDS011;64985;46.364;17.008;2022-12-18T07:33:02;91.78;;;33.13;;
76202;SDS011;64985;46.364;17.008;2022-12-18T07:36:05;89.25;;;35.05;;
76202;SDS011;64985;46.364;17.008;2022-12-18T07:39:10;100.75;;;36.42;;
76202;SDS011;64985;46.364;17.008;2022-12-18T07:42:12;89.28;;;35.00;;
76202;SDS011;64985;46.364;17.008;2022-12-18T07:48:35;89.68;;;33.97;;
76202;SDS011;64985;46.364;17.008;2022-12-18T07:51:37;94.68;;;36.42;;
76202;SDS011;64985;46.364;17.008;2022-12-18T07:54:39;86.28;;;35.53;;
76202;SDS011;64985;46.364;17.008;2022-12-18T07:57:41;116.65;;;46.90;;
76202;SDS011;64985;46.364;17.008;2022-12-18T08:01:02;138.13;;;56.42;;
76202;SDS011;64985;46.364;17.008;2022-12-18T08:04:08;104.20;;;40.95;;
76202;SDS011;64985;46.364;17.008;2022-12-18T08:07:10;100.97;;;40.10;;
76202;SDS011;64985;46.364;17.008;2022-12-18T08:10:12;96.63;;;35.90;;
76202;SDS011;64985;46.364;17.008;2022-12-18T08:13:15;88.95;;;33.63;;
76202;SDS011;64985;46.364;17.008;2022-12-18T08:16:17;82.15;;;31.05;;
76202;SDS011;64985;46.364;17.008;2022-12-18T08:19:20;86.72;;;30.75;;
76202;SDS011;64985;46.364;17.008;2022-12-18T08:22:22;80.07;;;29.80;;
76202;SDS011;64985;46.364;17.008;2022-12-18T08:25:24;86.22;;;29.90;;
76202;SDS011;64985;46.364;17.008;2022-12-18T08:28:26;81.60;;;30.35;;
76202;SDS011;64985;46.364;17.008;2022-12-18T08:31:29;79.78;;;31.88;;
76202;SDS011;64985;46.364;17.008;2022-12-18T08:34:32;89.65;;;33.95;;
76202;SDS011;64985;46.364;17.008;2022-12-18T08:37:34;77.57;;;33.47;;
76202;SDS011;64985;46.364;17.008;2022-12-18T08:40:36;88.45;;;34.65;;
76202;SDS011;64985;46.364;17.008;2022-12-18T08:43:38;88.53;;;35.38;;
76202;SDS011;64985;46.364;17.008;2022-12-18T08:46:59;92.50;;;36.50;;
76202;SDS011;64985;46.364;17.008;2022-12-18T08:50:02;86.25;;;35.55;;
76202;SDS011;64985;46.364;17.008;2022-12-18T08:53:04;73.70;;;31.70;;
76202;SDS011;64985;46.364;17.008;2022-12-18T08:56:07;61.30;;;26.73;;
76202;SDS011;64985;46.364;17.008;2022-12-18T08:59:09;45.92;;;22.38;;
76202;SDS011;64985;46.364;17.008;2022-12-18T09:02:19;46.28;;;22.73;;
76202;SDS011;64985;46.364;17.008;2022-12-18T09:05:21;41.88;;;21.20;;
76202;SDS011;64985;46.364;17.008;2022-12-18T09:08:24;44.67;;;22.17;;
76202;SDS011;64985;46.364;17.008;2022-12-18T09:11:26;35.60;;;18.67;;
76202;SDS011;64985;46.364;17.008;2022-12-18T09:14:30;40.97;;;20.65;;
76202;SDS011;64985;46.364;17.008;2022-12-18T09:17:32;37.13;;;19.73;;
76202;SDS011;64985;46.364;17.008;2022-12-18T09:20:35;41.08;;;21.50;;
76202;SDS011;64985;46.364;17.008;2022-12-18T09:23:37;41.47;;;21.83;;
76202;SDS011;64985;46.364;17.008;2022-12-18T09:26:40;41.85;;;22.05;;
76202;SDS011;64985;46.364;17.008;2022-12-18T09:29:47;42.47;;;21.73;;
76202;SDS011;64985;46.364;17.008;2022-12-18T09:32:49;36.80;;;20.65;;
76202;SDS011;64985;46.364;17.008;2022-12-18T09:35:51;39.00;;;21.58;;
76202;SDS011;64985;46.364;17.008;2022-12-18T09:38:53;41.05;;;21.95;;
76202;SDS011;64985;46.364;17.008;2022-12-18T09:41:57;39.05;;;21.17;;
76202;SDS011;64985;46.364;17.008;2022-12-18T09:45:00;40.17;;;21.83;;
76202;SDS011;64985;46.364;17.008;2022-12-18T09:48:04;38.17;;;21.60;;
76202;SDS011;64985;46.364;17.008;2022-12-18T09:51:12;36.28;;;20.42;;
76202;SDS011;64985;46.364;17.008;2022-12-18T09:54:39;40.13;;;20.00;;
76202;SDS011;64985;46.364;17.008;2022-12-18T09:57:44;44.35;;;22.73;;
76202;SDS011;64985;46.364;17.008;2022-12-18T10:00:51;42.53;;;21.60;;
76202;SDS011;64985;46.364;17.008;2022-12-18T10:03:54;41.20;;;20.35;;
76202;SDS011;64985;46.364;17.008;2022-12-18T10:07:02;37.97;;;19.70;;
76202;SDS011;64985;46.364;17.008;2022-12-18T10:10:53;40.58;;;20.02;;
76202;SDS011;64985;46.364;17.008;2022-12-18T10:13:57;38.75;;;19.05;;
76202;SDS011;64985;46.364;17.008;2022-12-18T10:17:28;39.05;;;18.70;;
76202;SDS011;64985;46.364;17.008;2022-12-18T10:20:43;40.67;;;18.95;;
76202;SDS011;64985;46.364;17.008;2022-12-18T10:27:21;44.58;;;22.02;;
76202;SDS011;64985;46.364;17.008;2022-12-18T10:30:26;50.63;;;24.55;;
76202;SDS011;64985;46.364;17.008;2022-12-18T10:33:29;54.22;;;25.42;;
76202;SDS011;64985;46.364;17.008;2022-12-18T10:36:33;49.65;;;24.05;;
76202;SDS011;64985;46.364;17.008;2022-12-18T10:39:35;51.28;;;24.33;;
76202;SDS011;64985;46.364;17.008;2022-12-18T10:42:38;48.55;;;22.38;;
76202;SDS011;64985;46.364;17.008;2022-12-18T10:45:42;46.08;;;21.55;;
76202;SDS011;64985;46.364;17.008;2022-12-18T10:49:25;42.22;;;20.63;;
76202;SDS011;64985;46.364;17.008;2022-12-18T10:52:30;38.35;;;18.85;;
76202;SDS011;64985;46.364;17.008;2022-12-18T10:55:38;40.95;;;19.48;;
76202;SDS011;64985;46.364;17.008;2022-12-18T10:58:41;36.97;;;18.38;;
76202;SDS011;64985;46.364;17.008;2022-12-18T11:01:54;37.40;;;18.13;;
76202;SDS011;64985;46.364;17.008;2022-12-18T11:04:58;39.60;;;18.15;;
76202;SDS011;64985;46.364;17.008;2022-12-18T11:08:01;36.80;;;18.40;;
76202;SDS011;64985;46.364;17.008;2022-12-18T11:11:03;36.17;;;17.85;;
76202;SDS011;64985;46.364;17.008;2022-12-18T11:14:25;32.95;;;16.90;;
76202;SDS011;64985;46.364;17.008;2022-12-18T11:17:33;32.97;;;16.55;;
76202;SDS011;64985;46.364;17.008;2022-12-18T11:20:37;36.17;;;17.30;;
76202;SDS011;64985;46.364;17.008;2022-12-18T11:26:52;56.15;;;26.35;;
76202;SDS011;64985;46.364;17.008;2022-12-18T11:30:08;54.55;;;23.15;;
76202;SDS011;64985;46.364;17.008;2022-12-18T11:33:15;30.50;;;14.50;;
76202;SDS011;64985;46.364;17.008;2022-12-18T11:36:22;28.55;;;14.60;;
76202;SDS011;64985;46.364;17.008;2022-12-18T11:39:33;19.05;;;10.55;;
76202;SDS011;64985;46.364;17.008;2022-12-18T11:46:37;43.75;;;18.70;;
76202;SDS011;64985;46.364;17.008;2022-12-18T11:49:47;37.70;;;17.52;;
76202;SDS011;64985;46.364;17.008;2022-12-18T11:52:51;24.33;;;12.52;;
76202;SDS011;64985;46.364;17.008;2022-12-18T12:06:23;21.60;;;12.07;;
76202;SDS011;64985;46.364;17.008;2022-12-18T12:13:17;25.70;;;13.80;;
76202;SDS011;64985;46.364;17.008;2022-12-18T12:16:27;25.38;;;14.55;;
76202;SDS011;64985;46.364;17.008;2022-12-18T12:26:11;22.50;;;12.50;;
76202;SDS011;64985;46.364;17.008;2022-12-18T12:29:38;21.27;;;12.50;;
76202;SDS011;64985;46.364;17.008;2022-12-18T12:36:23;17.92;;;10.90;;
76202;SDS011;64985;46.364;17.008;2022-12-18T12:39:30;19.25;;;10.82;;
76202;SDS011;64985;46.364;17.008;2022-12-18T12:42:39;17.73;;;10.40;;
76202;SDS011;64985;46.364;17.008;2022-12-18T12:46:05;18.35;;;10.90;;
76202;SDS011;64985;46.364;17.008;2022-12-18T12:49:18;21.52;;;11.02;;
76202;SDS011;64985;46.364;17.008;2022-12-18T12:55:37;19.90;;;11.30;;
76202;SDS011;64985;46.364;17.008;2022-12-18T13:02:18;20.63;;;11.35;;
76202;SDS011;64985;46.364;17.008;2022-12-18T13:05:44;18.83;;;11.45;;
76202;SDS011;64985;46.364;17.008;2022-12-18T13:08:56;18.00;;;11.00;;
76202;SDS011;64985;46.364;17.008;2022-12-18T13:12:02;18.40;;;10.77;;
76202;SDS011;64985;46.364;17.008;2022-12-18T13:15:25;18.58;;;11.30;;
76202;SDS011;64985;46.364;17.008;2022-12-18T13:18:54;17.77;;;11.00;;
76202;SDS011;64985;46.364;17.008;2022-12-18T13:22:01;21.05;;;12.35;;
76202;SDS011;64985;46.364;17.008;2022-12-18T13:25:04;19.02;;;11.80;;
76202;SDS011;64985;46.364;17.008;2022-12-18T13:35:36;21.20;;;12.13;;
76202;SDS011;64985;46.364;17.008;2022-12-18T13:41:34;24.85;;;13.20;;
76202;SDS011;64985;46.364;17.008;2022-12-18T13:44:40;23.25;;;13.90;;
76202;SDS011;64985;46.364;17.008;2022-12-18T13:47:42;25.55;;;15.18;;
76202;SDS011;64985;46.364;17.008;2022-12-18T13:51:05;27.63;;;15.00;;
76202;SDS011;64985;46.364;17.008;2022-12-18T13:57:33;23.60;;;13.95;;
76202;SDS011;64985;46.364;17.008;2022-12-18T14:00:43;24.95;;;15.38;;
76202;SDS011;64985;46.364;17.008;2022-12-18T14:03:46;24.05;;;14.88;;
76202;SDS011;64985;46.364;17.008;2022-12-18T14:06:51;23.70;;;15.70;;
76202;SDS011;64985;46.364;17.008;2022-12-18T14:09:57;23.45;;;14.40;;
76202;SDS011;64985;46.364;17.008;2022-12-18T14:13:29;24.25;;;15.32;;
76202;SDS011;64985;46.364;17.008;2022-12-18T14:16:33;24.48;;;14.25;;
76202;SDS011;64985;46.364;17.008;2022-12-18T14:19:40;22.58;;;13.80;;
76202;SDS011;64985;46.364;17.008;2022-12-18T14:22:45;24.33;;;15.93;;
76202;SDS011;64985;46.364;17.008;2022-12-18T14:25:48;23.40;;;15.43;;
76202;SDS011;64985;46.364;17.008;2022-12-18T14:28:51;25.88;;;15.43;;
76202;SDS011;64985;46.364;17.008;2022-12-18T14:35:17;23.42;;;14.45;;
76202;SDS011;64985;46.364;17.008;2022-12-18T14:41:28;23.98;;;14.85;;
76202;SDS011;64985;46.364;17.008;2022-12-18T14:44:30;26.10;;;16.23;;
76202;SDS011;64985;46.364;17.008;2022-12-18T14:47:50;45.85;;;27.38;;
76202;SDS011;64985;46.364;17.008;2022-12-18T14:51:00;85.53;;;46.80;;
76202;SDS011;64985;46.364;17.008;2022-12-18T14:54:14;67.70;;;37.03;;
76202;SDS011;64985;46.364;17.008;2022-12-18T14:57:24;50.97;;;28.45;;
76202;SDS011;64985;46.364;17.008;2022-12-18T15:03:33;32.60;;;17.77;;
76202;SDS011;64985;46.364;17.008;2022-12-18T15:06:36;34.90;;;16.92;;
76202;SDS011;64985;46.364;17.008;2022-12-18T15:10:00;34.45;;;17.15;;
76202;SDS011;64985;46.364;17.008;2022-12-18T15:13:21;29.00;;;15.75;;
76202;SDS011;64985;46.364;17.008;2022-12-18T15:16:26;30.15;;;14.57;;
76202;SDS011;64985;46.364;17.008;2022-12-18T15:19:34;35.03;;;16.60;;
76202;SDS011;64985;46.364;17.008;2022-12-18T15:22:41;36.67;;;18.38;;
76202;SDS011;64985;46.364;17.008;2022-12-18T15:25:45;35.90;;;18.50;;
76202;SDS011;64985;46.364;17.008;2022-12-18T15:28:51;31.73;;;16.60;;
76202;SDS011;64985;46.364;17.008;2022-12-18T15:32:00;31.23;;;15.15;;
76202;SDS011;64985;46.364;17.008;2022-12-18T15:38:24;36.38;;;16.92;;
76202;SDS011;64985;46.364;17.008;2022-12-18T15:41:30;36.85;;;17.73;;
76202;SDS011;64985;46.364;17.008;2022-12-18T15:45:02;39.22;;;20.08;;
76202;SDS011;64985;46.364;17.008;2022-12-18T15:48:23;48.35;;;23.98;;
76202;SDS011;64985;46.364;17.008;2022-12-18T15:51:36;51.17;;;23.88;;
76202;SDS011;64985;46.364;17.008;2022-12-18T15:54:40;56.25;;;23.88;;
76202;SDS011;64985;46.364;17.008;2022-12-18T15:58:02;61.30;;;27.23;;
76202;SDS011;64985;46.364;17.008;2022-12-18T16:01:05;62.78;;;28.63;;
76202;SDS011;64985;46.364;17.008;2022-12-18T16:04:12;52.58;;;24.77;;
76202;SDS011;64985;46.364;17.008;2022-12-18T16:07:17;67.57;;;30.50;;
76202;SDS011;64985;46.364;17.008;2022-12-18T16:10:26;51.65;;;24.67;;
76202;SDS011;64985;46.364;17.008;2022-12-18T16:13:30;79.10;;;37.78;;
76202;SDS011;64985;46.364;17.008;2022-12-18T16:16:33;62.97;;;29.30;;
76202;SDS011;64985;46.364;17.008;2022-12-18T16:19:36;55.47;;;27.65;;
76202;SDS011;64985;46.364;17.008;2022-12-18T16:22:41;58.10;;;26.95;;
76202;SDS011;64985;46.364;17.008;2022-12-18T16:25:46;62.08;;;29.55;;
76202;SDS011;64985;46.364;17.008;2022-12-18T16:28:49;70.10;;;33.03;;
76202;SDS011;64985;46.364;17.008;2022-12-18T16:31:51;72.80;;;34.78;;
76202;SDS011;64985;46.364;17.008;2022-12-18T16:34:59;56.40;;;27.27;;
76202;SDS011;64985;46.364;17.008;2022-12-18T16:38:03;42.22;;;19.38;;
76202;SDS011;64985;46.364;17.008;2022-12-18T16:41:15;37.17;;;17.02;;
76202;SDS011;64985;46.364;17.008;2022-12-18T16:44:33;45.25;;;20.27;;
76202;SDS011;64985;46.364;17.008;2022-12-18T16:47:38;46.00;;;22.42;;
76202;SDS011;64985;46.364;17.008;2022-12-18T16:50:43;47.72;;;23.10;;
76202;SDS011;64985;46.364;17.008;2022-12-18T16:53:47;49.00;;;23.10;;
76202;SDS011;64985;46.364;17.008;2022-12-18T16:56:51;39.67;;;18.85;;
76202;SDS011;64985;46.364;17.008;2022-12-18T16:59:55;45.33;;;20.67;;
76202;SDS011;64985;46.364;17.008;2022-12-18T17:03:05;43.15;;;20.08;;
76202;SDS011;64985;46.364;17.008;2022-12-18T17:06:09;41.53;;;19.77;;
76202;SDS011;64985;46.364;17.008;2022-12-18T17:09:13;41.10;;;20.17;;
76202;SDS011;64985;46.364;17.008;2022-12-18T17:12:23;42.45;;;20.95;;
76202;SDS011;64985;46.364;17.008;2022-12-18T17:15:29;42.60;;;19.15;;
76202;SDS011;64985;46.364;17.008;2022-12-18T17:18:32;45.20;;;20.15;;
76202;SDS011;64985;46.364;17.008;2022-12-18T17:21:36;43.00;;;19.83;;
76202;SDS011;64985;46.364;17.008;2022-12-18T17:24:41;39.40;;;18.50;;
76202;SDS011;64985;46.364;17.008;2022-12-18T17:27:44;40.13;;;17.95;;
76202;SDS011;64985;46.364;17.008;2022-12-18T17:30:49;33.20;;;15.73;;
76202;SDS011;64985;46.364;17.008;2022-12-18T17:33:52;36.08;;;16.65;;
76202;SDS011;64985;46.364;17.008;2022-12-18T17:36:55;36.17;;;17.05;;
76202;SDS011;64985;46.364;17.008;2022-12-18T17:39:58;37.47;;;17.40;;
76202;SDS011;64985;46.364;17.008;2022-12-18T17:43:02;33.00;;;14.70;;
76202;SDS011;64985;46.364;17.008;2022-12-18T17:46:05;33.20;;;14.63;;
76202;SDS011;64985;46.364;17.008;2022-12-18T17:49:09;74.82;;;25.73;;
76202;SDS011;64985;46.364;17.008;2022-12-18T17:52:15;50.70;;;20.15;;
76202;SDS011;64985;46.364;17.008;2022-12-18T17:55:18;38.40;;;16.13;;
76202;SDS011;64985;46.364;17.008;2022-12-18T17:58:21;31.65;;;13.57;;
76202;SDS011;64985;46.364;17.008;2022-12-18T18:01:24;40.35;;;17.02;;
76202;SDS011;64985;46.364;17.008;2022-12-18T18:04:28;58.05;;;22.60;;
76202;SDS011;64985;46.364;17.008;2022-12-18T18:07:32;45.45;;;19.50;;
76202;SDS011;64985;46.364;17.008;2022-12-18T18:10:36;41.45;;;17.15;;
76202;SDS011;64985;46.364;17.008;2022-12-18T18:13:40;44.55;;;17.63;;
76202;SDS011;64985;46.364;17.008;2022-12-18T18:17:01;41.53;;;16.92;;
76202;SDS011;64985;46.364;17.008;2022-12-18T18:20:06;42.63;;;16.48;;
76202;SDS011;64985;46.364;17.008;2022-12-18T18:23:09;36.28;;;15.57;;
76202;SDS011;64985;46.364;17.008;2022-12-18T18:26:13;33.72;;;14.80;;
76202;SDS011;64985;46.364;17.008;2022-12-18T18:29:17;43.03;;;17.33;;
76202;SDS011;64985;46.364;17.008;2022-12-18T18:32:22;47.90;;;17.50;;
76202;SDS011;64985;46.364;17.008;2022-12-18T18:35:25;43.28;;;17.15;;
76202;SDS011;64985;46.364;17.008;2022-12-18T18:38:49;36.33;;;15.75;;
76202;SDS011;64985;46.364;17.008;2022-12-18T18:41:52;49.08;;;20.00;;
76202;SDS011;64985;46.364;17.008;2022-12-18T18:44:56;47.67;;;20.25;;
76202;SDS011;64985;46.364;17.008;2022-12-18T18:47:59;50.70;;;21.75;;
76202;SDS011;64985;46.364;17.008;2022-12-18T18:51:04;33.63;;;14.45;;
76202;SDS011;64985;46.364;17.008;2022-12-18T18:54:09;38.42;;;15.90;;
76202;SDS011;64985;46.364;17.008;2022-12-18T18:57:12;38.67;;;17.23;;
76202;SDS011;64985;46.364;17.008;2022-12-18T19:00:25;28.23;;;12.65;;
76202;SDS011;64985;46.364;17.008;2022-12-18T19:03:29;51.00;;;22.20;;
76202;SDS011;64985;46.364;17.008;2022-12-18T19:06:33;50.40;;;20.50;;
76202;SDS011;64985;46.364;17.008;2022-12-18T19:09:36;44.75;;;19.10;;
76202;SDS011;64985;46.364;17.008;2022-12-18T19:12:39;45.95;;;18.50;;
76202;SDS011;64985;46.364;17.008;2022-12-18T19:16:02;48.30;;;20.88;;
76202;SDS011;64985;46.364;17.008;2022-12-18T19:19:09;43.22;;;18.60;;
76202;SDS011;64985;46.364;17.008;2022-12-18T19:22:15;37.42;;;16.55;;
76202;SDS011;64985;46.364;17.008;2022-12-18T19:25:18;39.13;;;15.75;;
76202;SDS011;64985;46.364;17.008;2022-12-18T19:28:21;32.13;;;14.15;;
76202;SDS011;64985;46.364;17.008;2022-12-18T19:31:29;36.30;;;15.02;;
76202;SDS011;64985;46.364;17.008;2022-12-18T19:34:37;34.20;;;14.82;;